sensor_id;sensor_type;location;lat;lon;timestamp;P1;durP1;ratioP1;P2;durP2;ratioP2
2009;SDS011;1008;47.404;8.502;2024-02-26T00:00:12;2.57;;;1.70;;
2009;SDS011;1008;47.404;8.502;2024-02-26T00:02:40;4.50;;;1.50;;
2009;SDS011;1008;47.404;8.502;2024-02-26T00:05:07;2.50;;;1.93;;
2009;SDS011;1008;47.404;8.502;2024-02-26T00:07:34;2.10;;;1.77;;
2009;SDS011;1008;47.404;8.502;2024-02-26T00:10:01;1.70;;;1.60;;
2009;SDS011;1008;47.404;8.502;2024-02-26T00:12:27;3.00;;;1.93;;
2009;SDS011;1008;47.404;8.502;2024-02-26T00:14:54;3.50;;;2.00;;
2009;SDS011;1008;47.404;8.502;2024-02-26T00:17:24;1.80;;;1.60;;
2009;SDS011;1008;47.404;8.502;2024-02-26T00:19:51;1.90;;;1.70;;
2009;SDS011;1008;47.404;8.502;2024-02-26T00:22:18;3.83;;;1.80;;
2009;SDS011;1008;47.404;8.502;2024-02-26T00:24:44;2.13;;;1.60;;
2009;SDS011;1008;47.404;8.502;2024-02-26T00:27:11;2.47;;;2.20;;
2009;SDS011;1008;47.404;8.502;2024-02-26T00:29:38;2.67;;;2.10;;
2009;SDS011;1008;47.404;8.502;2024-02-26T00:32:04;3.40;;;2.10;;
2009;SDS011;1008;47.404;8.502;2024-02-26T00:34:33;3.03;;;2.67;;
2009;SDS011;1008;47.404;8.502;2024-02-26T00:36:59;2.90;;;2.60;;
2009;SDS011;1008;47.404;8.502;2024-02-26T00:39:27;2.83;;;2.60;;
2009;SDS011;1008;47.404;8.502;2024-02-26T00:41:54;3.50;;;2.87;;
2009;SDS011;1008;47.404;8.502;2024-02-26T00:44:20;3.40;;;3.00;;
2009;SDS011;1008;47.404;8.502;2024-02-26T00:46:47;3.93;;;2.87;;
2009;SDS011;1008;47.404;8.502;2024-02-26T00:49:14;5.60;;;3.10;;
2009;SDS011;1008;47.404;8.502;2024-02-26T00:51:42;2.47;;;2.20;;
2009;SDS011;1008;47.404;8.502;2024-02-26T00:54:08;2.00;;;1.83;;
2009;SDS011;1008;47.404;8.502;2024-02-26T00:56:35;2.33;;;1.80;;
2009;SDS011;1008;47.404;8.502;2024-02-26T00:59:02;1.90;;;1.80;;
2009;SDS011;1008;47.404;8.502;2024-02-26T01:01:28;4.17;;;2.53;;
2009;SDS011;1008;47.404;8.502;2024-02-26T01:03:55;2.30;;;1.97;;
2009;SDS011;1008;47.404;8.502;2024-02-26T01:06:22;2.43;;;1.90;;
2009;SDS011;1008;47.404;8.502;2024-02-26T01:08:50;2.27;;;1.90;;
2009;SDS011;1008;47.404;8.502;2024-02-26T01:11:16;2.80;;;2.13;;
2009;SDS011;1008;47.404;8.502;2024-02-26T01:13:43;2.40;;;1.80;;
2009;SDS011;1008;47.404;8.502;2024-02-26T01:16:10;2.77;;;1.70;;
2009;SDS011;1008;47.404;8.502;2024-02-26T01:18:36;2.33;;;1.80;;
2009;SDS011;1008;47.404;8.502;2024-02-26T01:21:03;1.90;;;1.70;;
2009;SDS011;1008;47.404;8.502;2024-02-26T01:23:31;2.47;;;2.00;;
2009;SDS011;1008;47.404;8.502;2024-02-26T01:25:59;2.03;;;1.60;;
2009;SDS011;1008;47.404;8.502;2024-02-26T01:28:27;3.10;;;2.30;;
2009;SDS011;1008;47.404;8.502;2024-02-26T01:30:54;3.60;;;2.13;;
2009;SDS011;1008;47.404;8.502;2024-02-26T01:33:20;2.97;;;2.40;;
2009;SDS011;1008;47.404;8.502;2024-02-26T01:35:47;1.87;;;1.60;;
2009;SDS011;1008;47.404;8.502;2024-02-26T01:38:14;1.80;;;1.70;;
2009;SDS011;1008;47.404;8.502;2024-02-26T01:40:41;2.00;;;1.80;;
2009;SDS011;1008;47.404;8.502;2024-02-26T01:43:09;2.20;;;2.00;;
2009;SDS011;1008;47.404;8.502;2024-02-26T01:45:36;1.87;;;1.63;;
2009;SDS011;1008;47.404;8.502;2024-02-26T01:48:02;2.17;;;1.70;;
2009;SDS011;1008;47.404;8.502;2024-02-26T01:50:29;2.20;;;1.90;;
2009;SDS011;1008;47.404;8.502;2024-02-26T01:52:56;2.17;;;1.97;;
2009;SDS011;1008;47.404;8.502;2024-02-26T01:55:24;1.90;;;1.80;;
2009;SDS011;1008;47.404;8.502;2024-02-26T01:57:52;2.23;;;1.53;;
2009;SDS011;1008;47.404;8.502;2024-02-26T02:00:21;2.10;;;1.90;;
2009;SDS011;1008;47.404;8.502;2024-02-26T02:02:49;1.93;;;1.60;;
2009;SDS011;1008;47.404;8.502;2024-02-26T02:05:17;2.90;;;1.70;;
2009;SDS011;1008;47.404;8.502;2024-02-26T02:07:46;2.67;;;1.67;;
2009;SDS011;1008;47.404;8.502;2024-02-26T02:10:14;1.97;;;1.50;;
2009;SDS011;1008;47.404;8.502;2024-02-26T02:12:41;1.80;;;1.70;;
2009;SDS011;1008;47.404;8.502;2024-02-26T02:15:08;2.30;;;1.80;;
2009;SDS011;1008;47.404;8.502;2024-02-26T02:17:36;1.60;;;1.40;;
2009;SDS011;1008;47.404;8.502;2024-02-26T02:20:03;1.57;;;1.47;;
2009;SDS011;1008;47.404;8.502;2024-02-26T02:22:35;1.30;;;1.20;;
2009;SDS011;1008;47.404;8.502;2024-02-26T02:25:01;2.13;;;1.50;;
2009;SDS011;1008;47.404;8.502;2024-02-26T02:27:29;1.53;;;1.43;;
2009;SDS011;1008;47.404;8.502;2024-02-26T02:29:56;1.67;;;1.47;;
2009;SDS011;1008;47.404;8.502;2024-02-26T02:32:23;2.70;;;2.00;;
2009;SDS011;1008;47.404;8.502;2024-02-26T02:34:51;2.07;;;1.50;;
2009;SDS011;1008;47.404;8.502;2024-02-26T02:37:18;1.97;;;1.33;;
2009;SDS011;1008;47.404;8.502;2024-02-26T02:39:46;2.17;;;1.70;;
2009;SDS011;1008;47.404;8.502;2024-02-26T02:42:12;1.67;;;1.53;;
2009;SDS011;1008;47.404;8.502;2024-02-26T02:44:39;2.17;;;1.70;;
2009;SDS011;1008;47.404;8.502;2024-02-26T02:47:06;1.73;;;1.33;;
2009;SDS011;1008;47.404;8.502;2024-02-26T02:49:33;1.87;;;1.60;;
2009;SDS011;1008;47.404;8.502;2024-02-26T02:51:59;1.63;;;1.30;;
2009;SDS011;1008;47.404;8.502;2024-02-26T02:54:26;1.67;;;1.53;;
2009;SDS011;1008;47.404;8.502;2024-02-26T02:56:54;2.13;;;1.60;;
2009;SDS011;1008;47.404;8.502;2024-02-26T02:59:21;1.93;;;1.57;;
2009;SDS011;1008;47.404;8.502;2024-02-26T03:01:47;5.67;;;1.43;;
2009;SDS011;1008;47.404;8.502;2024-02-26T03:04:14;2.90;;;1.87;;
2009;SDS011;1008;47.404;8.502;2024-02-26T03:06:41;1.83;;;1.70;;
2009;SDS011;1008;47.404;8.502;2024-02-26T03:09:07;1.90;;;1.80;;
2009;SDS011;1008;47.404;8.502;2024-02-26T03:11:34;2.90;;;1.70;;
2009;SDS011;1008;47.404;8.502;2024-02-26T03:14:02;1.80;;;1.70;;
2009;SDS011;1008;47.404;8.502;2024-02-26T03:16:30;2.00;;;1.63;;
2009;SDS011;1008;47.404;8.502;2024-02-26T03:18:56;1.87;;;1.73;;
2009;SDS011;1008;47.404;8.502;2024-02-26T03:21:23;2.20;;;1.80;;
2009;SDS011;1008;47.404;8.502;2024-02-26T03:23:50;2.43;;;1.90;;
2009;SDS011;1008;47.404;8.502;2024-02-26T03:26:17;3.83;;;2.00;;
2009;SDS011;1008;47.404;8.502;2024-02-26T03:28:44;2.20;;;2.00;;
2009;SDS011;1008;47.404;8.502;2024-02-26T03:31:12;2.33;;;1.40;;
2009;SDS011;1008;47.404;8.502;2024-02-26T03:33:39;1.67;;;1.57;;
2009;SDS011;1008;47.404;8.502;2024-02-26T03:36:05;1.83;;;1.73;;
2009;SDS011;1008;47.404;8.502;2024-02-26T03:38:33;1.80;;;1.63;;
2009;SDS011;1008;47.404;8.502;2024-02-26T03:40:59;2.00;;;1.77;;
2009;SDS011;1008;47.404;8.502;2024-02-26T03:43:26;1.73;;;1.63;;
2009;SDS011;1008;47.404;8.502;2024-02-26T03:45:53;2.80;;;1.50;;
2009;SDS011;1008;47.404;8.502;2024-02-26T03:48:20;1.77;;;1.50;;
2009;SDS011;1008;47.404;8.502;2024-02-26T03:50:47;2.60;;;1.60;;
2009;SDS011;1008;47.404;8.502;2024-02-26T03:53:13;1.30;;;1.20;;
2009;SDS011;1008;47.404;8.502;2024-02-26T03:55:40;1.93;;;1.40;;
2009;SDS011;1008;47.404;8.502;2024-02-26T03:58:07;2.63;;;1.60;;
2009;SDS011;1008;47.404;8.502;2024-02-26T04:00:34;2.33;;;1.77;;
2009;SDS011;1008;47.404;8.502;2024-02-26T04:03:01;2.30;;;1.73;;
2009;SDS011;1008;47.404;8.502;2024-02-26T04:05:29;1.67;;;1.37;;
2009;SDS011;1008;47.404;8.502;2024-02-26T04:07:55;2.73;;;2.03;;
2009;SDS011;1008;47.404;8.502;2024-02-26T04:10:22;2.03;;;1.50;;
2009;SDS011;1008;47.404;8.502;2024-02-26T04:12:49;1.60;;;1.50;;
2009;SDS011;1008;47.404;8.502;2024-02-26T04:15:16;1.50;;;1.40;;
2009;SDS011;1008;47.404;8.502;2024-02-26T04:17:43;2.40;;;1.57;;
2009;SDS011;1008;47.404;8.502;2024-02-26T04:20:12;1.60;;;1.50;;
2009;SDS011;1008;47.404;8.502;2024-02-26T04:22:41;1.70;;;1.60;;
2009;SDS011;1008;47.404;8.502;2024-02-26T04:25:08;1.73;;;1.63;;
2009;SDS011;1008;47.404;8.502;2024-02-26T04:27:35;2.23;;;1.77;;
2009;SDS011;1008;47.404;8.502;2024-02-26T04:30:02;1.60;;;1.50;;
2009;SDS011;1008;47.404;8.502;2024-02-26T04:32:30;1.43;;;1.33;;
2009;SDS011;1008;47.404;8.502;2024-02-26T04:34:56;1.77;;;1.60;;
2009;SDS011;1008;47.404;8.502;2024-02-26T04:37:23;1.87;;;1.30;;
2009;SDS011;1008;47.404;8.502;2024-02-26T04:39:51;1.10;;;1.00;;
2009;SDS011;1008;47.404;8.502;2024-02-26T04:42:18;2.03;;;1.30;;
2009;SDS011;1008;47.404;8.502;2024-02-26T04:44:44;1.50;;;1.40;;
2009;SDS011;1008;47.404;8.502;2024-02-26T04:47:11;2.43;;;1.37;;
2009;SDS011;1008;47.404;8.502;2024-02-26T04:49:38;1.30;;;1.20;;
2009;SDS011;1008;47.404;8.502;2024-02-26T04:52:05;1.70;;;1.60;;
2009;SDS011;1008;47.404;8.502;2024-02-26T04:54:31;1.20;;;1.10;;
2009;SDS011;1008;47.404;8.502;2024-02-26T04:56:59;1.57;;;1.17;;
2009;SDS011;1008;47.404;8.502;2024-02-26T04:59:26;1.30;;;1.20;;
2009;SDS011;1008;47.404;8.502;2024-02-26T05:01:53;1.20;;;1.10;;
2009;SDS011;1008;47.404;8.502;2024-02-26T05:04:20;1.37;;;1.27;;
2009;SDS011;1008;47.404;8.502;2024-02-26T05:06:46;1.20;;;1.10;;
2009;SDS011;1008;47.404;8.502;2024-02-26T05:09:13;1.20;;;1.10;;
2009;SDS011;1008;47.404;8.502;2024-02-26T05:11:40;1.30;;;1.20;;
2009;SDS011;1008;47.404;8.502;2024-02-26T05:14:08;1.40;;;1.30;;
2009;SDS011;1008;47.404;8.502;2024-02-26T05:16:35;1.57;;;1.20;;
2009;SDS011;1008;47.404;8.502;2024-02-26T05:19:02;1.30;;;1.20;;
2009;SDS011;1008;47.404;8.502;2024-02-26T05:21:28;1.23;;;1.13;;
2009;SDS011;1008;47.404;8.502;2024-02-26T05:23:55;1.60;;;1.50;;
2009;SDS011;1008;47.404;8.502;2024-02-26T05:26:22;1.30;;;1.20;;
2009;SDS011;1008;47.404;8.502;2024-02-26T05:28:49;1.40;;;1.30;;
2009;SDS011;1008;47.404;8.502;2024-02-26T05:31:17;2.13;;;1.30;;
2009;SDS011;1008;47.404;8.502;2024-02-26T05:33:44;1.50;;;1.40;;
2009;SDS011;1008;47.404;8.502;2024-02-26T05:36:17;1.40;;;1.30;;
2009;SDS011;1008;47.404;8.502;2024-02-26T05:38:44;1.30;;;1.13;;
2009;SDS011;1008;47.404;8.502;2024-02-26T05:41:12;1.70;;;1.50;;
2009;SDS011;1008;47.404;8.502;2024-02-26T05:43:38;1.97;;;1.40;;
2009;SDS011;1008;47.404;8.502;2024-02-26T05:46:05;1.40;;;1.30;;
2009;SDS011;1008;47.404;8.502;2024-02-26T05:48:33;1.57;;;1.47;;
2009;SDS011;1008;47.404;8.502;2024-02-26T05:51:00;1.30;;;1.20;;
2009;SDS011;1008;47.404;8.502;2024-02-26T05:53:26;2.67;;;1.50;;
2009;SDS011;1008;47.404;8.502;2024-02-26T05:55:53;2.97;;;1.43;;
2009;SDS011;1008;47.404;8.502;2024-02-26T05:58:20;1.77;;;1.40;;
2009;SDS011;1008;47.404;8.502;2024-02-26T06:00:47;1.67;;;1.57;;
2009;SDS011;1008;47.404;8.502;2024-02-26T06:03:13;1.40;;;1.30;;
2009;SDS011;1008;47.404;8.502;2024-02-26T06:05:41;2.13;;;1.93;;
2009;SDS011;1008;47.404;8.502;2024-02-26T06:08:08;3.50;;;1.77;;
2009;SDS011;1008;47.404;8.502;2024-02-26T06:10:35;2.00;;;1.80;;
2009;SDS011;1008;47.404;8.502;2024-02-26T06:13:02;1.90;;;1.77;;
2009;SDS011;1008;47.404;8.502;2024-02-26T06:15:28;2.00;;;1.80;;
2009;SDS011;1008;47.404;8.502;2024-02-26T06:17:55;2.40;;;1.60;;
2009;SDS011;1008;47.404;8.502;2024-02-26T06:20:22;3.07;;;1.70;;
2009;SDS011;1008;47.404;8.502;2024-02-26T06:22:50;1.70;;;1.50;;
2009;SDS011;1008;47.404;8.502;2024-02-26T06:25:17;1.77;;;1.67;;
2009;SDS011;1008;47.404;8.502;2024-02-26T06:27:44;1.67;;;1.43;;
2009;SDS011;1008;47.404;8.502;2024-02-26T06:30:11;1.57;;;1.47;;
2009;SDS011;1008;47.404;8.502;2024-02-26T06:32:38;1.43;;;1.30;;
2009;SDS011;1008;47.404;8.502;2024-02-26T06:35:05;1.50;;;1.40;;
2009;SDS011;1008;47.404;8.502;2024-02-26T06:37:34;1.47;;;1.37;;
2009;SDS011;1008;47.404;8.502;2024-02-26T06:40:03;1.50;;;1.40;;
2009;SDS011;1008;47.404;8.502;2024-02-26T06:42:31;1.90;;;1.80;;
2009;SDS011;1008;47.404;8.502;2024-02-26T06:44:58;1.93;;;1.73;;
2009;SDS011;1008;47.404;8.502;2024-02-26T06:47:25;3.13;;;1.40;;
2009;SDS011;1008;47.404;8.502;2024-02-26T06:49:52;1.70;;;1.60;;
2009;SDS011;1008;47.404;8.502;2024-02-26T06:52:20;1.40;;;1.30;;
2009;SDS011;1008;47.404;8.502;2024-02-26T06:54:46;1.67;;;1.50;;
2009;SDS011;1008;47.404;8.502;2024-02-26T06:57:17;1.80;;;1.43;;
2009;SDS011;1008;47.404;8.502;2024-02-26T06:59:44;1.47;;;1.37;;
2009;SDS011;1008;47.404;8.502;2024-02-26T07:02:12;2.87;;;1.63;;
2009;SDS011;1008;47.404;8.502;2024-02-26T07:04:38;2.90;;;1.40;;
2009;SDS011;1008;47.404;8.502;2024-02-26T07:07:05;1.40;;;1.30;;
2009;SDS011;1008;47.404;8.502;2024-02-26T07:09:33;1.87;;;1.50;;
2009;SDS011;1008;47.404;8.502;2024-02-26T07:11:59;1.73;;;1.63;;
2009;SDS011;1008;47.404;8.502;2024-02-26T07:14:27;1.53;;;1.37;;
2009;SDS011;1008;47.404;8.502;2024-02-26T07:16:54;1.60;;;1.50;;
2009;SDS011;1008;47.404;8.502;2024-02-26T07:19:21;3.47;;;1.80;;
2009;SDS011;1008;47.404;8.502;2024-02-26T07:21:48;2.17;;;2.00;;
2009;SDS011;1008;47.404;8.502;2024-02-26T07:24:14;3.60;;;2.00;;
2009;SDS011;1008;47.404;8.502;2024-02-26T07:26:41;2.60;;;2.30;;
2009;SDS011;1008;47.404;8.502;2024-02-26T07:29:08;2.90;;;2.00;;
2009;SDS011;1008;47.404;8.502;2024-02-26T07:31:36;2.30;;;2.10;;
2009;SDS011;1008;47.404;8.502;2024-02-26T07:34:02;4.20;;;2.20;;
2009;SDS011;1008;47.404;8.502;2024-02-26T07:36:29;3.17;;;1.90;;
2009;SDS011;1008;47.404;8.502;2024-02-26T07:38:56;2.20;;;2.00;;
2009;SDS011;1008;47.404;8.502;2024-02-26T07:41:22;2.10;;;1.90;;
2009;SDS011;1008;47.404;8.502;2024-02-26T07:43:50;2.50;;;2.30;;
2009;SDS011;1008;47.404;8.502;2024-02-26T07:46:17;3.07;;;2.07;;
2009;SDS011;1008;47.404;8.502;2024-02-26T07:48:45;3.87;;;2.00;;
2009;SDS011;1008;47.404;8.502;2024-02-26T07:51:12;4.27;;;3.30;;
2009;SDS011;1008;47.404;8.502;2024-02-26T07:53:39;2.67;;;2.33;;
2009;SDS011;1008;47.404;8.502;2024-02-26T07:56:06;3.40;;;2.10;;
2009;SDS011;1008;47.404;8.502;2024-02-26T07:58:33;2.50;;;2.30;;
2009;SDS011;1008;47.404;8.502;2024-02-26T08:00:59;2.33;;;2.13;;
2009;SDS011;1008;47.404;8.502;2024-02-26T08:03:26;4.17;;;2.87;;
2009;SDS011;1008;47.404;8.502;2024-02-26T08:05:54;4.47;;;2.20;;
2009;SDS011;1008;47.404;8.502;2024-02-26T08:08:21;3.57;;;2.20;;
2009;SDS011;1008;47.404;8.502;2024-02-26T08:10:48;3.00;;;2.43;;
2009;SDS011;1008;47.404;8.502;2024-02-26T08:13:14;2.73;;;2.50;;
2009;SDS011;1008;47.404;8.502;2024-02-26T08:15:41;2.60;;;2.40;;
2009;SDS011;1008;47.404;8.502;2024-02-26T08:18:08;3.40;;;2.80;;
2009;SDS011;1008;47.404;8.502;2024-02-26T08:20:34;5.53;;;3.10;;
2009;SDS011;1008;47.404;8.502;2024-02-26T08:23:02;4.17;;;2.47;;
2009;SDS011;1008;47.404;8.502;2024-02-26T08:25:29;2.70;;;2.50;;
2009;SDS011;1008;47.404;8.502;2024-02-26T08:27:56;2.60;;;2.40;;
2009;SDS011;1008;47.404;8.502;2024-02-26T08:30:23;3.10;;;2.33;;
2009;SDS011;1008;47.404;8.502;2024-02-26T08:32:50;3.47;;;2.60;;
2009;SDS011;1008;47.404;8.502;2024-02-26T08:35:17;6.00;;;2.50;;
2009;SDS011;1008;47.404;8.502;2024-02-26T08:37:44;3.73;;;2.60;;
2009;SDS011;1008;47.404;8.502;2024-02-26T08:40:13;2.57;;;2.37;;
2009;SDS011;1008;47.404;8.502;2024-02-26T08:42:40;2.90;;;2.60;;
2009;SDS011;1008;47.404;8.502;2024-02-26T08:45:07;2.63;;;2.43;;
2009;SDS011;1008;47.404;8.502;2024-02-26T08:47:34;2.57;;;2.20;;
2009;SDS011;1008;47.404;8.502;2024-02-26T08:50:01;3.40;;;2.47;;
2009;SDS011;1008;47.404;8.502;2024-02-26T08:52:28;4.90;;;2.10;;
2009;SDS011;1008;47.404;8.502;2024-02-26T08:54:55;3.73;;;2.80;;
2009;SDS011;1008;47.404;8.502;2024-02-26T08:57:23;3.10;;;2.90;;
2009;SDS011;1008;47.404;8.502;2024-02-26T08:59:52;2.70;;;2.50;;
2009;SDS011;1008;47.404;8.502;2024-02-26T09:02:18;3.77;;;3.03;;
2009;SDS011;1008;47.404;8.502;2024-02-26T09:04:45;6.63;;;3.20;;
2009;SDS011;1008;47.404;8.502;2024-02-26T09:07:12;8.10;;;3.40;;
2009;SDS011;1008;47.404;8.502;2024-02-26T09:09:39;4.30;;;2.90;;
2009;SDS011;1008;47.404;8.502;2024-02-26T09:12:05;16.00;;;8.67;;
2009;SDS011;1008;47.404;8.502;2024-02-26T09:14:34;5.63;;;3.30;;
2009;SDS011;1008;47.404;8.502;2024-02-26T09:17:00;5.83;;;3.27;;
2009;SDS011;1008;47.404;8.502;2024-02-26T09:19:27;5.10;;;3.13;;
2009;SDS011;1008;47.404;8.502;2024-02-26T09:21:54;5.77;;;3.30;;
2009;SDS011;1008;47.404;8.502;2024-02-26T09:24:22;3.60;;;3.20;;
2009;SDS011;1008;47.404;8.502;2024-02-26T09:26:49;9.97;;;3.90;;
2009;SDS011;1008;47.404;8.502;2024-02-26T09:29:16;4.30;;;3.23;;
2009;SDS011;1008;47.404;8.502;2024-02-26T09:31:44;7.60;;;6.80;;
2009;SDS011;1008;47.404;8.502;2024-02-26T09:34:12;3.80;;;2.93;;
2009;SDS011;1008;47.404;8.502;2024-02-26T09:36:39;3.20;;;2.60;;
2009;SDS011;1008;47.404;8.502;2024-02-26T09:39:05;3.80;;;2.80;;
2009;SDS011;1008;47.404;8.502;2024-02-26T09:41:36;4.77;;;3.20;;
2009;SDS011;1008;47.404;8.502;2024-02-26T09:44:04;3.90;;;3.23;;
2009;SDS011;1008;47.404;8.502;2024-02-26T09:46:31;7.03;;;4.10;;
2009;SDS011;1008;47.404;8.502;2024-02-26T09:48:59;8.10;;;5.80;;
2009;SDS011;1008;47.404;8.502;2024-02-26T09:51:26;5.07;;;3.40;;
2009;SDS011;1008;47.404;8.502;2024-02-26T09:53:53;3.30;;;3.00;;
2009;SDS011;1008;47.404;8.502;2024-02-26T09:56:22;3.47;;;2.80;;
2009;SDS011;1008;47.404;8.502;2024-02-26T09:58:49;4.03;;;3.40;;
2009;SDS011;1008;47.404;8.502;2024-02-26T10:01:19;4.73;;;2.97;;
2009;SDS011;1008;47.404;8.502;2024-02-26T10:03:48;4.33;;;2.40;;
2009;SDS011;1008;47.404;8.502;2024-02-26T10:06:22;3.80;;;2.90;;
2009;SDS011;1008;47.404;8.502;2024-02-26T10:08:50;2.80;;;2.60;;
2009;SDS011;1008;47.404;8.502;2024-02-26T10:11:17;3.60;;;2.50;;
2009;SDS011;1008;47.404;8.502;2024-02-26T10:13:44;3.60;;;2.33;;
2009;SDS011;1008;47.404;8.502;2024-02-26T10:16:11;3.43;;;2.67;;
2009;SDS011;1008;47.404;8.502;2024-02-26T10:18:47;2.87;;;2.60;;
2009;SDS011;1008;47.404;8.502;2024-02-26T10:21:15;2.60;;;2.40;;
2009;SDS011;1008;47.404;8.502;2024-02-26T10:23:45;3.20;;;2.43;;
2009;SDS011;1008;47.404;8.502;2024-02-26T10:26:12;2.60;;;2.10;;
2009;SDS011;1008;47.404;8.502;2024-02-26T10:28:40;2.77;;;2.10;;
2009;SDS011;1008;47.404;8.502;2024-02-26T10:31:07;2.60;;;2.23;;
2009;SDS011;1008;47.404;8.502;2024-02-26T10:33:34;3.07;;;2.70;;
2009;SDS011;1008;47.404;8.502;2024-02-26T10:36:02;2.93;;;2.33;;
2009;SDS011;1008;47.404;8.502;2024-02-26T10:38:30;3.50;;;2.43;;
2009;SDS011;1008;47.404;8.502;2024-02-26T10:40:58;4.23;;;2.33;;
2009;SDS011;1008;47.404;8.502;2024-02-26T10:43:25;2.73;;;2.53;;
2009;SDS011;1008;47.404;8.502;2024-02-26T10:45:51;4.23;;;2.57;;
2009;SDS011;1008;47.404;8.502;2024-02-26T10:48:20;2.77;;;2.57;;
2009;SDS011;1008;47.404;8.502;2024-02-26T10:50:47;2.73;;;2.50;;
2009;SDS011;1008;47.404;8.502;2024-02-26T10:53:16;3.30;;;2.30;;
2009;SDS011;1008;47.404;8.502;2024-02-26T10:55:48;3.23;;;2.27;;
2009;SDS011;1008;47.404;8.502;2024-02-26T10:58:19;7.93;;;2.47;;
2009;SDS011;1008;47.404;8.502;2024-02-26T11:00:51;4.23;;;2.50;;
2009;SDS011;1008;47.404;8.502;2024-02-26T11:03:19;4.03;;;2.97;;
2009;SDS011;1008;47.404;8.502;2024-02-26T11:05:47;6.13;;;2.37;;
2009;SDS011;1008;47.404;8.502;2024-02-26T11:08:15;3.07;;;2.40;;
2009;SDS011;1008;47.404;8.502;2024-02-26T11:10:44;3.03;;;2.10;;
2009;SDS011;1008;47.404;8.502;2024-02-26T11:13:14;2.33;;;2.13;;
2009;SDS011;1008;47.404;8.502;2024-02-26T11:15:45;2.47;;;2.27;;
2009;SDS011;1008;47.404;8.502;2024-02-26T11:18:13;2.30;;;2.10;;
2009;SDS011;1008;47.404;8.502;2024-02-26T11:20:41;2.57;;;2.00;;
2009;SDS011;1008;47.404;8.502;2024-02-26T11:23:09;8.40;;;2.23;;
2009;SDS011;1008;47.404;8.502;2024-02-26T11:25:36;2.20;;;2.00;;
2009;SDS011;1008;47.404;8.502;2024-02-26T11:28:05;2.00;;;1.80;;
2009;SDS011;1008;47.404;8.502;2024-02-26T11:30:35;2.30;;;1.93;;
2009;SDS011;1008;47.404;8.502;2024-02-26T11:33:07;5.43;;;2.53;;
2009;SDS011;1008;47.404;8.502;2024-02-26T11:35:36;2.27;;;2.07;;
2009;SDS011;1008;47.404;8.502;2024-02-26T11:38:03;2.43;;;2.23;;
2009;SDS011;1008;47.404;8.502;2024-02-26T11:40:31;2.33;;;2.03;;
2009;SDS011;1008;47.404;8.502;2024-02-26T11:42:59;2.53;;;1.93;;
2009;SDS011;1008;47.404;8.502;2024-02-26T11:48:23;2.80;;;2.27;;
2009;SDS011;1008;47.404;8.502;2024-02-26T11:50:51;2.30;;;2.10;;
2009;SDS011;1008;47.404;8.502;2024-02-26T11:53:19;2.43;;;2.23;;
2009;SDS011;1008;47.404;8.502;2024-02-26T11:58:46;5.00;;;4.00;;
2009;SDS011;1008;47.404;8.502;2024-02-26T12:04:15;4.53;;;2.80;;
2009;SDS011;1008;47.404;8.502;2024-02-26T12:06:45;3.77;;;2.70;;
2009;SDS011;1008;47.404;8.502;2024-02-26T12:09:13;2.40;;;2.20;;
2009;SDS011;1008;47.404;8.502;2024-02-26T12:11:56;4.67;;;2.90;;
2009;SDS011;1008;47.404;8.502;2024-02-26T12:14:24;2.87;;;2.33;;
2009;SDS011;1008;47.404;8.502;2024-02-26T12:16:52;3.03;;;2.57;;
2009;SDS011;1008;47.404;8.502;2024-02-26T12:19:20;3.13;;;2.40;;
2009;SDS011;1008;47.404;8.502;2024-02-26T12:21:50;3.40;;;2.97;;
2009;SDS011;1008;47.404;8.502;2024-02-26T12:24:18;3.23;;;2.67;;
2009;SDS011;1008;47.404;8.502;2024-02-26T12:26:46;4.47;;;3.13;;
2009;SDS011;1008;47.404;8.502;2024-02-26T12:29:12;4.27;;;2.40;;
2009;SDS011;1008;47.404;8.502;2024-02-26T12:31:40;5.67;;;2.57;;
2009;SDS011;1008;47.404;8.502;2024-02-26T12:34:07;3.20;;;2.67;;
2009;SDS011;1008;47.404;8.502;2024-02-26T12:36:36;3.20;;;2.30;;
2009;SDS011;1008;47.404;8.502;2024-02-26T12:39:05;3.40;;;2.27;;
2009;SDS011;1008;47.404;8.502;2024-02-26T12:41:32;3.63;;;2.40;;
2009;SDS011;1008;47.404;8.502;2024-02-26T12:43:59;2.43;;;2.23;;
2009;SDS011;1008;47.404;8.502;2024-02-26T12:46:26;4.30;;;2.90;;
2009;SDS011;1008;47.404;8.502;2024-02-26T12:48:54;4.90;;;3.17;;
2009;SDS011;1008;47.404;8.502;2024-02-26T12:51:23;2.87;;;2.20;;
2009;SDS011;1008;47.404;8.502;2024-02-26T12:53:52;2.57;;;2.07;;
2009;SDS011;1008;47.404;8.502;2024-02-26T12:56:20;2.70;;;1.90;;
2009;SDS011;1008;47.404;8.502;2024-02-26T12:58:48;3.37;;;2.23;;
2009;SDS011;1008;47.404;8.502;2024-02-26T13:01:18;3.60;;;2.63;;
2009;SDS011;1008;47.404;8.502;2024-02-26T13:03:49;6.73;;;2.13;;
2009;SDS011;1008;47.404;8.502;2024-02-26T13:06:16;4.00;;;2.40;;
2009;SDS011;1008;47.404;8.502;2024-02-26T13:08:44;3.50;;;2.33;;
2009;SDS011;1008;47.404;8.502;2024-02-26T13:11:13;2.70;;;2.30;;
2009;SDS011;1008;47.404;8.502;2024-02-26T13:13:40;2.30;;;2.10;;
2009;SDS011;1008;47.404;8.502;2024-02-26T13:16:07;3.43;;;2.57;;
2009;SDS011;1008;47.404;8.502;2024-02-26T13:18:36;2.73;;;2.13;;
2009;SDS011;1008;47.404;8.502;2024-02-26T13:21:07;9.47;;;2.60;;
2009;SDS011;1008;47.404;8.502;2024-02-26T13:23:38;3.43;;;2.60;;
2009;SDS011;1008;47.404;8.502;2024-02-26T13:26:06;2.20;;;1.97;;
2009;SDS011;1008;47.404;8.502;2024-02-26T13:28:35;2.50;;;2.30;;
2009;SDS011;1008;47.404;8.502;2024-02-26T13:31:01;3.10;;;2.07;;
2009;SDS011;1008;47.404;8.502;2024-02-26T13:33:30;2.80;;;2.23;;
2009;SDS011;1008;47.404;8.502;2024-02-26T13:35:58;2.63;;;2.20;;
2009;SDS011;1008;47.404;8.502;2024-02-26T13:38:25;3.00;;;2.40;;
2009;SDS011;1008;47.404;8.502;2024-02-26T13:40:53;5.47;;;2.63;;
2009;SDS011;1008;47.404;8.502;2024-02-26T13:43:20;2.60;;;2.40;;
2009;SDS011;1008;47.404;8.502;2024-02-26T13:45:48;3.53;;;2.53;;
2009;SDS011;1008;47.404;8.502;2024-02-26T13:48:15;2.80;;;2.27;;
2009;SDS011;1008;47.404;8.502;2024-02-26T13:50:42;6.07;;;2.60;;
2009;SDS011;1008;47.404;8.502;2024-02-26T13:53:10;3.07;;;2.00;;
2009;SDS011;1008;47.404;8.502;2024-02-26T13:55:37;2.50;;;2.23;;
2009;SDS011;1008;47.404;8.502;2024-02-26T13:58:04;2.73;;;1.80;;
2009;SDS011;1008;47.404;8.502;2024-02-26T14:00:32;2.43;;;2.00;;
2009;SDS011;1008;47.404;8.502;2024-02-26T14:03:01;3.97;;;2.33;;
2009;SDS011;1008;47.404;8.502;2024-02-26T14:05:28;2.03;;;1.80;;
2009;SDS011;1008;47.404;8.502;2024-02-26T14:07:55;4.67;;;2.40;;
2009;SDS011;1008;47.404;8.502;2024-02-26T14:10:22;3.23;;;2.57;;
2009;SDS011;1008;47.404;8.502;2024-02-26T14:12:49;2.30;;;2.03;;
2009;SDS011;1008;47.404;8.502;2024-02-26T14:15:15;6.87;;;2.43;;
2009;SDS011;1008;47.404;8.502;2024-02-26T14:17:42;5.37;;;2.47;;
2009;SDS011;1008;47.404;8.502;2024-02-26T14:20:11;2.20;;;2.00;;
2009;SDS011;1008;47.404;8.502;2024-02-26T14:22:38;3.50;;;2.07;;
2009;SDS011;1008;47.404;8.502;2024-02-26T14:25:05;2.60;;;2.17;;
2009;SDS011;1008;47.404;8.502;2024-02-26T14:27:34;4.80;;;2.33;;
2009;SDS011;1008;47.404;8.502;2024-02-26T14:30:01;2.20;;;2.00;;
2009;SDS011;1008;47.404;8.502;2024-02-26T14:32:28;3.00;;;2.57;;
2009;SDS011;1008;47.404;8.502;2024-02-26T14:34:56;2.50;;;2.20;;
2009;SDS011;1008;47.404;8.502;2024-02-26T14:37:24;3.60;;;3.03;;
2009;SDS011;1008;47.404;8.502;2024-02-26T14:39:50;2.50;;;2.30;;
2009;SDS011;1008;47.404;8.502;2024-02-26T14:42:17;2.80;;;2.30;;
2009;SDS011;1008;47.404;8.502;2024-02-26T14:44:44;3.83;;;2.37;;
2009;SDS011;1008;47.404;8.502;2024-02-26T14:47:12;3.97;;;2.60;;
2009;SDS011;1008;47.404;8.502;2024-02-26T14:49:39;2.80;;;2.13;;
2009;SDS011;1008;47.404;8.502;2024-02-26T14:52:06;2.37;;;2.17;;
2009;SDS011;1008;47.404;8.502;2024-02-26T14:54:34;2.70;;;2.50;;
2009;SDS011;1008;47.404;8.502;2024-02-26T14:57:03;3.10;;;2.17;;
2009;SDS011;1008;47.404;8.502;2024-02-26T14:59:31;3.03;;;2.20;;
2009;SDS011;1008;47.404;8.502;2024-02-26T15:01:58;3.30;;;2.53;;
2009;SDS011;1008;47.404;8.502;2024-02-26T15:04:25;4.90;;;2.97;;
2009;SDS011;1008;47.404;8.502;2024-02-26T15:06:52;3.23;;;2.57;;
2009;SDS011;1008;47.404;8.502;2024-02-26T15:09:19;2.50;;;2.27;;
2009;SDS011;1008;47.404;8.502;2024-02-26T15:11:47;4.10;;;2.40;;
2009;SDS011;1008;47.404;8.502;2024-02-26T15:14:14;2.70;;;2.30;;
2009;SDS011;1008;47.404;8.502;2024-02-26T15:16:40;3.90;;;2.20;;
2009;SDS011;1008;47.404;8.502;2024-02-26T15:19:07;4.90;;;2.23;;
2009;SDS011;1008;47.404;8.502;2024-02-26T15:21:34;5.53;;;2.43;;
2009;SDS011;1008;47.404;8.502;2024-02-26T15:24:07;4.63;;;2.37;;